createdAt,value
2019-06-26T00:00:36.324Z,26.90
2019-06-26T00:03:03.570Z,26.90
2019-06-26T00:05:32.579Z,26.90
2019-06-26T00:08:00.834Z,26.90
2019-06-26T00:10:29.114Z,26.90
2019-06-26T00:12:57.373Z,26.90
2019-06-26T00:15:25.999Z,26.90
2019-06-26T00:17:54.826Z,26.90
2019-06-26T00:20:23.094Z,26.90
2019-06-26T00:22:51.371Z,26.90
2019-06-26T00:25:19.644Z,26.90
2019-06-26T00:27:49.280Z,26.90
2019-06-26T00:30:17.538Z,26.90
2019-06-26T00:32:45.874Z,26.90
2019-06-26T00:35:14.130Z,26.90
2019-06-26T00:37:42.389Z,26.90
2019-06-26T00:40:10.732Z,26.90
2019-06-26T00:42:38.985Z,26.90
2019-06-26T00:45:07.254Z,26.90
2019-06-26T00:47:35.514Z,26.90
2019-06-26T00:50:06.121Z,26.90
2019-06-26T00:52:34.406Z,26.90
2019-06-26T00:55:02.747Z,26.90
2019-06-26T00:57:30.989Z,26.90
2019-06-26T01:00:00.906Z,26.90
2019-06-26T01:02:29.176Z,26.90
2019-06-26T01:04:59.167Z,26.90
2019-06-26T01:07:27.426Z,26.90
2019-06-26T01:09:55.684Z,26.90
2019-06-26T01:12:23.951Z,26.90
2019-06-26T01:14:52.194Z,26.90
2019-06-26T01:17:20.754Z,26.90
2019-06-26T01:19:49.016Z,26.90
2019-06-26T01:22:17.292Z,26.90
2019-06-26T01:24:45.559Z,26.90
2019-06-26T01:27:13.846Z,26.90
2019-06-26T01:29:42.177Z,26.90
2019-06-26T01:32:10.454Z,26.90
2019-06-26T01:34:39.382Z,26.90
2019-06-26T01:37:08.521Z,26.90
2019-06-26T01:39:36.774Z,26.90
2019-06-26T01:42:05.038Z,26.90
2019-06-26T01:44:33.298Z,26.90
2019-06-26T01:47:01.568Z,26.90
2019-06-26T01:49:29.818Z,26.90
2019-06-26T01:51:58.106Z,26.90
2019-06-26T01:54:26.427Z,26.90
2019-06-26T01:56:54.701Z,26.90
2019-06-26T01:59:22.966Z,26.90
2019-06-26T02:01:51.414Z,26.90
2019-06-26T02:04:20.235Z,26.90
2019-06-26T02:06:48.507Z,26.90
2019-06-26T02:09:16.780Z,26.90
2019-06-26T02:11:45.039Z,26.90
2019-06-26T02:14:13.297Z,26.90
2019-06-26T02:16:41.561Z,26.90
2019-06-26T02:19:14.099Z,26.90
2019-06-26T02:21:42.380Z,26.90
2019-06-26T02:24:10.630Z,26.90
2019-06-26T02:26:38.903Z,26.90
2019-06-26T02:29:07.164Z,26.90
2019-06-26T02:31:35.441Z,26.90
2019-06-26T02:34:03.771Z,26.90
2019-06-26T02:36:32.100Z,26.90
2019-06-26T02:39:00.364Z,26.90
2019-06-26T02:41:28.623Z,26.90
2019-06-26T02:43:56.883Z,26.90
2019-06-26T02:46:25.139Z,26.90
2019-06-26T02:48:53.408Z,26.80
2019-06-26T02:51:21.919Z,26.90
2019-06-26T02:53:50.203Z,26.90
2019-06-26T02:56:18.459Z,26.80
2019-06-26T02:58:47.196Z,26.90
2019-06-26T03:01:15.455Z,26.80
2019-06-26T03:03:44.963Z,26.80
2019-06-26T03:06:13.219Z,26.80
2019-06-26T03:08:41.495Z,26.80
2019-06-26T03:11:09.756Z,26.80
2019-06-26T03:13:38.392Z,26.80
2019-06-26T03:16:06.650Z,26.80
2019-06-26T03:18:34.907Z,26.80
2019-06-26T03:21:03.178Z,26.80
2019-06-26T03:23:31.438Z,26.90
2019-06-26T03:25:59.717Z,26.80
2019-06-26T03:28:27.983Z,26.80
2019-06-26T03:30:56.244Z,26.80
2019-06-26T03:33:25.201Z,26.80
2019-06-26T03:35:53.458Z,26.80
2019-06-26T03:38:22.295Z,26.80
2019-06-26T03:40:50.571Z,26.80
2019-06-26T03:43:18.844Z,26.80
2019-06-26T03:45:47.175Z,26.80
2019-06-26T03:48:15.483Z,26.80
2019-06-26T03:50:43.747Z,26.80
2019-06-26T03:53:13.141Z,26.80
2019-06-26T03:55:41.778Z,26.80
2019-06-26T03:58:10.043Z,26.80
2019-06-26T04:00:40.062Z,26.80
2019-06-26T04:03:08.409Z,26.80
2019-06-26T04:05:36.670Z,26.80
2019-06-26T04:08:04.945Z,26.80
2019-06-26T04:10:33.942Z,26.80
2019-06-26T04:13:02.770Z,26.90
2019-06-26T04:15:42.077Z,26.80
2019-06-26T04:18:04.594Z,26.90
2019-06-26T04:20:32.881Z,26.80
2019-06-26T04:23:01.196Z,26.80
2019-06-26T04:25:30.796Z,26.80
2019-06-26T04:27:59.110Z,26.90
2019-06-26T04:30:27.379Z,26.90
2019-06-26T04:32:55.638Z,26.90
2019-06-26T04:35:23.934Z,26.90
2019-06-26T04:37:52.779Z,26.90
2019-06-26T04:40:21.070Z,26.90
2019-06-26T04:42:49.797Z,26.90
2019-06-26T04:45:18.255Z,26.90
2019-06-26T04:47:46.955Z,26.90
2019-06-26T04:50:15.270Z,26.90
2019-06-26T04:52:43.558Z,26.90
2019-06-26T04:55:11.812Z,26.90
2019-06-26T04:57:40.088Z,26.90
2019-06-26T05:00:08.494Z,27.00
2019-06-26T05:02:36.842Z,27.00
2019-06-26T05:05:06.366Z,27.00
2019-06-26T05:07:34.648Z,27.00
2019-06-26T05:10:03.038Z,27.00
2019-06-26T05:12:31.303Z,27.00
2019-06-26T05:14:59.578Z,27.00
2019-06-26T05:17:27.870Z,27.00
2019-06-26T05:19:56.413Z,27.00
2019-06-26T05:22:24.755Z,27.10
2019-06-26T05:24:53.338Z,27.10
2019-06-26T05:27:21.629Z,27.10
2019-06-26T05:29:49.879Z,27.10
2019-06-26T05:32:18.162Z,27.10
2019-06-26T05:34:46.418Z,27.10
2019-06-26T05:37:14.710Z,27.10
2019-06-26T05:39:42.986Z,27.20
2019-06-26T05:42:11.246Z,27.10
2019-06-26T05:44:39.498Z,27.20
2019-06-26T05:47:07.822Z,27.20
2019-06-26T05:49:36.098Z,27.20
2019-06-26T05:52:04.535Z,27.20
2019-06-26T05:54:32.798Z,27.20
2019-06-26T05:57:01.070Z,27.20
2019-06-26T05:59:29.326Z,27.20
2019-06-26T06:01:57.622Z,27.20
2019-06-26T06:04:25.882Z,27.20
2019-06-26T06:06:54.142Z,27.20
2019-06-26T06:09:22.407Z,27.30
2019-06-26T06:11:50.690Z,27.20
2019-06-26T06:14:20.897Z,27.30
2019-06-26T06:16:49.746Z,27.30
2019-06-26T06:19:18.043Z,27.30
2019-06-26T06:21:46.301Z,27.30
2019-06-26T06:24:14.590Z,27.30
2019-06-26T06:26:42.842Z,27.30
2019-06-26T06:29:11.129Z,27.20
2019-06-26T06:31:39.722Z,27.20
2019-06-26T06:34:08.008Z,27.30
2019-06-26T06:36:36.324Z,27.30
2019-06-26T06:39:06.094Z,27.30
2019-06-26T06:41:34.369Z,27.30
2019-06-26T06:44:02.626Z,27.30
2019-06-26T06:46:31.215Z,27.30
2019-06-26T06:48:59.508Z,27.30
2019-06-26T06:51:27.774Z,27.30
2019-06-26T06:53:56.070Z,27.30
2019-06-26T06:56:24.345Z,27.30
2019-06-26T06:58:52.590Z,27.30
2019-06-26T07:01:20.859Z,27.30
2019-06-26T07:03:49.214Z,27.30
2019-06-26T07:06:17.478Z,27.30
2019-06-26T07:08:45.730Z,27.30
2019-06-26T07:11:14.683Z,27.30
2019-06-26T07:13:42.964Z,27.30
2019-06-26T07:16:11.227Z,27.30
2019-06-26T07:18:39.588Z,27.30
2019-06-26T07:21:07.871Z,27.40
2019-06-26T07:23:36.122Z,27.40
2019-06-26T07:26:04.970Z,27.30
2019-06-26T07:28:33.258Z,27.30
2019-06-26T07:31:01.550Z,27.30
2019-06-26T07:33:29.820Z,27.30
2019-06-26T07:35:58.109Z,27.30
2019-06-26T07:38:26.439Z,27.30
2019-06-26T07:40:54.716Z,27.30
2019-06-26T07:43:22.992Z,27.40
2019-06-26T07:45:51.347Z,27.40
2019-06-26T07:48:19.931Z,27.30
2019-06-26T07:50:48.232Z,27.30
2019-06-26T07:53:16.566Z,27.30
2019-06-26T07:55:44.834Z,27.40
2019-06-26T07:58:13.095Z,27.30
2019-06-26T08:00:41.435Z,27.40
2019-06-26T08:03:09.881Z,27.40
2019-06-26T08:05:42.462Z,27.40
2019-06-26T08:08:08.309Z,27.40
2019-06-26T08:10:36.663Z,27.30
2019-06-26T08:13:04.969Z,27.40
2019-06-26T08:15:33.299Z,27.30
2019-06-26T08:18:01.769Z,27.30
2019-06-26T08:20:30.145Z,27.30
2019-06-26T08:22:59.032Z,27.30
2019-06-26T08:25:27.312Z,27.30
2019-06-26T08:27:55.915Z,27.30
2019-06-26T08:30:25.895Z,27.30
2019-06-26T08:32:54.158Z,27.30
2019-06-26T08:35:22.438Z,27.30
2019-06-26T08:37:50.718Z,27.30
2019-06-26T08:40:19.406Z,27.40
2019-06-26T08:42:48.024Z,27.30
2019-06-26T08:45:16.283Z,27.30
2019-06-26T08:47:44.526Z,27.30
2019-06-26T08:50:12.794Z,27.30
2019-06-26T08:52:41.046Z,27.30
2019-06-26T08:55:10.458Z,27.30
2019-06-26T08:57:38.733Z,27.40
2019-06-26T09:00:07.734Z,27.30
2019-06-26T09:02:35.987Z,27.30
2019-06-26T09:05:06.322Z,27.30
2019-06-26T09:07:34.865Z,27.30
2019-06-26T09:10:04.486Z,27.30
2019-06-26T09:12:33.056Z,27.40
2019-06-26T09:15:01.379Z,27.30
2019-06-26T09:17:29.698Z,27.40
2019-06-26T09:19:57.987Z,27.30
2019-06-26T09:22:26.271Z,27.30
2019-06-26T09:24:55.172Z,27.40
2019-06-26T09:27:23.713Z,27.30
2019-06-26T09:29:51.975Z,27.40
2019-06-26T09:32:20.254Z,27.30
2019-06-26T09:34:49.184Z,27.30
2019-06-26T09:37:17.458Z,27.30
2019-06-26T09:39:46.030Z,27.30
2019-06-26T09:42:19.152Z,27.30
2019-06-26T09:44:46.195Z,27.30
2019-06-26T09:47:15.704Z,27.30
2019-06-26T09:49:44.106Z,27.30
2019-06-26T09:52:12.439Z,27.30
2019-06-26T09:54:41.293Z,27.30
2019-06-26T09:57:10.191Z,27.40
2019-06-26T09:59:38.485Z,27.30
2019-06-26T10:02:06.764Z,27.30
2019-06-26T10:04:35.071Z,27.40
2019-06-26T10:07:03.507Z,27.30
2019-06-26T10:09:31.849Z,27.30
2019-06-26T10:12:00.112Z,27.30
2019-06-26T10:14:46.203Z,27.30
2019-06-26T10:16:58.424Z,27.30
2019-06-26T10:19:26.722Z,27.30
2019-06-26T10:21:55.588Z,27.30
2019-06-26T10:24:23.941Z,27.30
2019-06-26T10:26:52.316Z,27.40
2019-06-26T10:29:20.585Z,27.30
2019-06-26T10:31:48.852Z,27.30
2019-06-26T10:34:17.698Z,27.30
2019-06-26T10:36:45.971Z,27.40
2019-06-26T10:39:14.224Z,27.40
2019-06-26T10:41:42.491Z,27.30
2019-06-26T10:44:10.748Z,27.30
2019-06-26T10:46:40.421Z,27.30
2019-06-26T10:49:16.887Z,27.30
2019-06-26T10:51:39.099Z,27.30
2019-06-26T10:54:07.435Z,27.30
2019-06-26T10:56:35.704Z,27.30
2019-06-26T10:59:03.956Z,27.30
2019-06-26T11:01:32.246Z,27.40
2019-06-26T11:04:00.499Z,27.30
2019-06-26T11:06:28.782Z,27.40
2019-06-26T11:08:57.138Z,27.30
2019-06-26T11:11:25.474Z,27.30
2019-06-26T11:13:54.091Z,27.40
2019-06-26T11:16:22.390Z,27.40
2019-06-26T11:18:50.703Z,27.40
2019-06-26T11:21:18.989Z,27.40
2019-06-26T11:23:48.641Z,27.40
2019-06-26T11:26:16.887Z,27.40
2019-06-26T11:28:45.522Z,27.40
2019-06-26T11:31:13.791Z,27.40
2019-06-26T11:33:42.059Z,27.40
2019-06-26T11:36:10.346Z,27.40
2019-06-26T11:38:38.698Z,27.50
2019-06-26T11:41:07.009Z,27.50
2019-06-26T11:43:35.470Z,27.40
2019-06-26T11:46:03.763Z,27.40
2019-06-26T11:48:32.105Z,27.40
2019-06-26T11:51:00.387Z,27.50
2019-06-26T11:53:28.670Z,27.40
2019-06-26T11:55:57.019Z,27.40
2019-06-26T11:58:25.360Z,27.50
2019-06-26T12:00:54.013Z,27.50
2019-06-26T12:03:22.333Z,27.50
2019-06-26T12:05:50.584Z,27.40
2019-06-26T12:08:18.846Z,27.40
2019-06-26T12:10:47.571Z,27.40
2019-06-26T12:13:15.847Z,27.50
2019-06-26T12:15:44.118Z,27.40
2019-06-26T12:18:12.409Z,27.40
2019-06-26T12:20:41.228Z,27.40
2019-06-26T12:23:09.487Z,27.50
2019-06-26T12:25:37.742Z,27.50
2019-06-26T12:28:06.297Z,27.50
2019-06-26T12:30:34.573Z,27.40
2019-06-26T12:33:04.506Z,27.50
2019-06-26T12:35:32.859Z,27.50
2019-06-26T12:38:01.136Z,27.50
2019-06-26T12:40:31.282Z,27.50
2019-06-26T12:42:59.463Z,27.50
2019-06-26T12:45:27.742Z,27.50
2019-06-26T12:47:55.994Z,27.50
2019-06-26T12:50:34.631Z,27.50
2019-06-26T12:52:54.271Z,27.50
2019-06-26T12:55:22.616Z,27.50
2019-06-26T12:57:50.875Z,27.50
2019-06-26T13:00:19.162Z,27.50
2019-06-26T13:02:47.705Z,27.50
2019-06-26T13:05:16.627Z,27.50
2019-06-26T13:07:45.007Z,27.50
2019-06-26T13:10:13.418Z,27.50
2019-06-26T13:12:45.503Z,27.50
2019-06-26T13:15:11.886Z,27.50
2019-06-26T13:17:40.146Z,27.50
2019-06-26T13:20:10.442Z,27.50
2019-06-26T13:22:38.997Z,27.50
2019-06-26T13:25:07.647Z,27.50
2019-06-26T13:27:35.902Z,27.50
2019-06-26T13:30:06.452Z,27.50
2019-06-26T13:32:34.699Z,27.50
2019-06-26T13:35:03.786Z,27.50
2019-06-26T13:37:32.139Z,27.50
2019-06-26T13:40:00.425Z,27.50
2019-06-26T13:42:29.110Z,27.50
2019-06-26T13:44:57.394Z,27.50
2019-06-26T13:47:26.242Z,27.50
2019-06-26T13:49:54.542Z,27.50
2019-06-26T13:52:23.384Z,27.50
2019-06-26T13:54:52.389Z,27.50
2019-06-26T13:57:21.366Z,27.50
2019-06-26T13:59:49.618Z,27.50
2019-06-26T14:02:19.914Z,27.50
2019-06-26T14:04:47.916Z,27.50
2019-06-26T14:07:16.269Z,27.50
2019-06-26T14:09:44.543Z,27.50
2019-06-26T14:12:12.810Z,27.50
2019-06-26T14:14:56.816Z,27.50
2019-06-26T14:17:11.074Z,27.60
2019-06-26T14:19:39.322Z,27.60
2019-06-26T14:22:07.587Z,27.60
2019-06-26T14:24:35.862Z,27.60
2019-06-26T14:27:04.303Z,27.60
2019-06-26T14:29:32.561Z,27.60
2019-06-26T14:32:00.832Z,27.60
2019-06-26T14:34:29.930Z,27.60
2019-06-26T14:36:58.193Z,27.60
2019-06-26T14:39:26.446Z,27.60
2019-06-26T14:41:54.751Z,27.60
2019-06-26T14:44:23.098Z,27.60
2019-06-26T14:46:51.442Z,27.60
2019-06-26T14:49:20.285Z,27.60
2019-06-26T14:51:48.550Z,27.50
2019-06-26T14:54:16.897Z,27.60
2019-06-26T14:56:45.166Z,27.60
2019-06-26T14:59:13.418Z,27.60
2019-06-26T15:01:41.702Z,27.60
2019-06-26T15:04:09.966Z,27.60
2019-06-26T15:06:38.250Z,27.60
2019-06-26T15:09:06.787Z,27.60
2019-06-26T15:11:35.138Z,27.60
2019-06-26T15:14:04.444Z,27.60
2019-06-26T15:16:32.704Z,27.60
2019-06-26T15:19:00.966Z,27.60
2019-06-26T15:21:29.895Z,27.60
2019-06-26T15:23:58.179Z,27.60
2019-06-26T15:26:26.449Z,27.60
2019-06-26T15:28:56.168Z,27.60
2019-06-26T15:31:25.788Z,27.60
2019-06-26T15:33:54.059Z,27.60
2019-06-26T15:36:22.323Z,27.60
2019-06-26T15:38:50.590Z,27.60
2019-06-26T15:41:18.845Z,27.60
2019-06-26T15:43:47.123Z,27.60
2019-06-26T15:46:15.389Z,27.60
2019-06-26T15:48:43.660Z,27.60
2019-06-26T15:51:11.938Z,27.60
2019-06-26T15:53:40.211Z,27.60
2019-06-26T15:56:08.490Z,27.60
2019-06-26T15:58:36.766Z,27.60
2019-06-26T16:01:05.027Z,27.60
2019-06-26T16:03:33.304Z,27.60
2019-06-26T16:06:01.859Z,27.60
2019-06-26T16:08:30.232Z,27.60
2019-06-26T16:10:58.554Z,27.60
2019-06-26T16:13:27.307Z,27.60
2019-06-26T16:15:55.563Z,27.60
2019-06-26T16:18:28.176Z,27.60
2019-06-26T16:20:56.443Z,27.60
2019-06-26T16:23:25.343Z,27.60
2019-06-26T16:25:54.188Z,27.50
2019-06-26T16:28:22.465Z,27.50
2019-06-26T16:30:50.758Z,27.60
2019-06-26T16:33:19.082Z,27.50
2019-06-26T16:35:47.351Z,27.50
2019-06-26T16:38:15.634Z,27.50
2019-06-26T16:40:43.924Z,27.50
2019-06-26T16:43:12.222Z,27.50
2019-06-26T16:45:40.496Z,27.50
2019-06-26T16:48:08.762Z,27.50
2019-06-26T16:50:37.349Z,27.50
2019-06-26T16:53:05.622Z,27.50
2019-06-26T16:55:33.891Z,27.50
2019-06-26T16:58:02.173Z,27.50
2019-06-26T17:00:30.438Z,27.50
2019-06-26T17:02:58.719Z,27.50
2019-06-26T17:05:26.982Z,27.50
2019-06-26T17:07:55.261Z,27.50
2019-06-26T17:10:23.534Z,27.50
2019-06-26T17:12:52.355Z,27.50
2019-06-26T17:15:20.631Z,27.50
2019-06-26T17:17:48.892Z,27.50
2019-06-26T17:20:17.155Z,27.60
2019-06-26T17:22:45.415Z,27.50
2019-06-26T17:25:13.706Z,27.50
2019-06-26T17:27:42.039Z,27.50
2019-06-26T17:30:11.081Z,27.50
2019-06-26T17:32:39.338Z,27.50
2019-06-26T17:35:07.610Z,27.50
2019-06-26T17:37:36.216Z,27.50
2019-06-26T17:40:04.830Z,27.50
2019-06-26T17:42:33.087Z,27.50
2019-06-26T17:45:01.659Z,27.50
2019-06-26T17:47:31.926Z,27.50
2019-06-26T17:50:00.201Z,27.50
2019-06-26T17:52:28.711Z,27.50
2019-06-26T17:54:56.983Z,27.50
2019-06-26T17:57:25.834Z,27.50
2019-06-26T17:59:54.095Z,27.40
2019-06-26T18:02:22.360Z,27.40
2019-06-26T18:04:51.191Z,27.40
2019-06-26T18:07:19.463Z,27.50
2019-06-26T18:09:48.292Z,27.50
2019-06-26T18:12:16.586Z,27.50
2019-06-26T18:14:44.836Z,27.50
2019-06-26T18:17:21.936Z,27.50
2019-06-26T18:19:43.098Z,27.50
2019-06-26T18:22:11.382Z,27.50
2019-06-26T18:24:39.643Z,27.50
2019-06-26T18:27:07.911Z,27.50
2019-06-26T18:29:36.176Z,27.50
2019-06-26T18:32:04.702Z,27.40
2019-06-26T18:34:32.964Z,27.40
2019-06-26T18:37:01.231Z,27.40
2019-06-26T18:39:29.504Z,27.40
2019-06-26T18:41:57.765Z,27.40
2019-06-26T18:44:26.023Z,27.40
2019-06-26T18:46:54.291Z,27.10
2019-06-26T18:49:22.560Z,26.70
2019-06-26T18:51:50.846Z,26.70
2019-06-26T18:54:19.167Z,26.90
2019-06-26T18:56:47.451Z,26.90
2019-06-26T18:59:16.274Z,27.00
2019-06-26T19:01:44.555Z,27.10
2019-06-26T19:04:12.895Z,27.20
2019-06-26T19:06:41.153Z,27.30
2019-06-26T19:09:09.423Z,27.30
2019-06-26T19:11:37.698Z,27.30
2019-06-26T19:14:05.963Z,27.30
2019-06-26T19:16:36.440Z,27.30
2019-06-26T19:19:04.226Z,27.30
2019-06-26T19:21:32.494Z,27.30
2019-06-26T19:24:10.211Z,27.40
2019-06-26T19:26:30.743Z,27.40
2019-06-26T19:28:59.059Z,27.30
2019-06-26T19:31:27.334Z,27.30
2019-06-26T19:33:55.603Z,27.30
2019-06-26T19:36:28.399Z,27.40
2019-06-26T19:38:54.540Z,27.40
2019-06-26T19:41:22.823Z,27.40
2019-06-26T19:43:51.090Z,27.40
2019-06-26T19:46:19.353Z,27.40
2019-06-26T19:48:47.650Z,27.40
2019-06-26T19:51:15.975Z,27.30
2019-06-26T19:53:44.269Z,27.30
2019-06-26T19:56:12.587Z,27.30
2019-06-26T19:58:40.859Z,27.10
2019-06-26T20:01:09.288Z,26.50
2019-06-26T20:03:37.618Z,26.20
2019-06-26T20:06:05.888Z,26.00
2019-06-26T20:08:34.183Z,25.90
2019-06-26T20:11:03.079Z,25.80
2019-06-26T20:13:31.941Z,25.70
2019-06-26T20:16:01.468Z,25.50
2019-06-26T20:18:29.756Z,25.40
2019-06-26T20:20:58.053Z,25.40
2019-06-26T20:23:26.593Z,25.40
2019-06-26T20:25:54.894Z,25.30
2019-06-26T20:28:23.342Z,25.20
2019-06-26T20:30:51.647Z,25.30
2019-06-26T20:33:19.913Z,25.30
2019-06-26T20:35:48.182Z,25.30
2019-06-26T20:38:16.523Z,25.30
2019-06-26T20:40:46.035Z,25.20
2019-06-26T20:43:14.642Z,25.10
2019-06-26T20:45:42.911Z,25.10
2019-06-26T20:48:11.161Z,25.10
2019-06-26T20:50:39.436Z,25.20
2019-06-26T20:53:07.718Z,25.20
2019-06-26T20:55:35.988Z,25.30
2019-06-26T20:58:04.262Z,25.30
2019-06-26T21:00:32.608Z,25.20
2019-06-26T21:03:00.941Z,25.10
2019-06-26T21:05:29.779Z,24.90
2019-06-26T21:07:58.109Z,24.80
2019-06-26T21:10:26.387Z,24.80
2019-06-26T21:12:54.654Z,24.70
2019-06-26T21:15:22.944Z,24.80
2019-06-26T21:17:51.199Z,24.70
2019-06-26T21:20:19.570Z,24.80
2019-06-26T21:22:47.826Z,24.90
2019-06-26T21:25:18.848Z,24.90
2019-06-26T21:27:46.487Z,24.80
2019-06-26T21:30:14.770Z,24.80
2019-06-26T21:32:43.042Z,24.70
2019-06-26T21:35:11.370Z,24.70
2019-06-26T21:37:39.627Z,24.70
2019-06-26T21:40:07.887Z,24.50
2019-06-26T21:42:36.154Z,24.60
2019-06-26T21:45:06.522Z,24.60
2019-06-26T21:47:34.798Z,24.50
2019-06-26T21:50:03.800Z,24.60
2019-06-26T21:52:32.101Z,24.50
2019-06-26T21:55:00.445Z,24.50
2019-06-26T21:57:28.716Z,24.50
2019-06-26T21:59:56.996Z,24.50
2019-06-26T22:02:25.268Z,24.60
2019-06-26T22:04:53.870Z,24.70
2019-06-26T22:07:22.202Z,24.70
2019-06-26T22:09:50.467Z,24.80
2019-06-26T22:12:18.908Z,24.90
2019-06-26T22:14:47.290Z,24.80
2019-06-26T22:17:15.638Z,24.60
2019-06-26T22:19:43.922Z,24.60
2019-06-26T22:22:12.198Z,24.60
2019-06-26T22:24:40.610Z,24.60
2019-06-26T22:27:08.946Z,24.50
2019-06-26T22:29:37.208Z,24.40
2019-06-26T22:32:05.473Z,24.40
2019-06-26T22:34:33.726Z,24.50
2019-06-26T22:37:01.992Z,24.50
2019-06-26T22:39:30.251Z,24.60
2019-06-26T22:41:58.590Z,24.70
2019-06-26T22:44:27.083Z,24.70
2019-06-26T22:46:55.365Z,24.60
2019-06-26T22:49:23.635Z,24.60
2019-06-26T22:51:51.931Z,24.60
2019-06-26T22:54:20.206Z,24.60
2019-06-26T22:56:48.463Z,24.50
2019-06-26T22:59:16.740Z,24.60
2019-06-26T23:01:45.313Z,24.50
2019-06-26T23:04:13.583Z,24.40
2019-06-26T23:06:41.846Z,24.40
2019-06-26T23:09:10.115Z,24.50
2019-06-26T23:11:38.377Z,24.60
2019-06-26T23:14:13.080Z,24.60
2019-06-26T23:16:41.347Z,24.60
2019-06-26T23:19:09.607Z,24.40
2019-06-26T23:21:38.177Z,24.40
2019-06-26T23:24:06.786Z,24.40
2019-06-26T23:26:35.051Z,24.40
2019-06-26T23:29:03.661Z,24.40
2019-06-26T23:31:32.232Z,24.40
2019-06-26T23:34:00.515Z,24.40
2019-06-26T23:36:28.783Z,24.30
2019-06-26T23:38:57.047Z,24.30
2019-06-26T23:41:25.311Z,24.30
2019-06-26T23:43:53.588Z,24.30
2019-06-26T23:46:21.860Z,24.40
2019-06-26T23:48:50.215Z,24.40
2019-06-26T23:51:18.483Z,24.50
2019-06-26T23:53:47.149Z,24.50
2019-06-26T23:56:15.703Z,24.30
2019-06-26T23:58:43.979Z,24.20
